Time;durP1;ratioP1;P1;durP2;ratioP2;P2;SDS_P1;SDS_P2;PMS_P1;PMS_P2;Temp;Humidity;BMP_temperature;BMP_pressure;BME280_temperature;BME280_humidity;BME280_pressure;Samples;Min_cycle;Max_cycle;Signal;HPM_P1;HPM_P2
2021/03/19 00:00:55;;;;;;;23.25;14.32;;;;;;;2.64;39.86;101401.56;4971133;28;96687;-74
2021/03/19 00:03:22;;;;;;;23.98;13.80;;;;;;;2.64;39.87;101418.25;4979767;28;100780;-74
2021/03/19 00:05:50;;;;;;;26.33;14.07;;;;;;;2.58;40.29;101411.69;5011246;27;100506;-73
2021/03/19 00:08:17;;;;;;;21.42;13.25;;;;;;;2.55;39.53;101416.75;4977727;28;97285;-74
2021/03/19 00:10:44;;;;;;;20.38;13.80;;;;;;;2.49;40.15;101411.13;4979502;28;96707;-73
2021/03/19 00:13:11;;;;;;;23.73;13.90;;;;;;;2.42;40.26;101409.81;4959749;28;98694;-74
2021/03/19 00:15:39;;;;;;;21.35;13.65;;;;;;;2.42;40.19;101414.19;4968661;28;97740;-74
2021/03/19 00:18:07;;;;;;;21.85;13.27;;;;;;;2.41;39.42;101407.09;4975729;28;96410;-74
2021/03/19 00:20:37;;;;;;;21.35;13.85;;;;;;;2.38;40.49;101415.69;4986654;28;96930;-73
2021/03/19 00:23:04;;;;;;;24.85;14.48;;;;;;;2.39;40.31;101413.97;5006573;28;97125;-74
2021/03/19 00:25:32;;;;;;;22.33;12.93;;;;;;;2.32;40.25;101424.88;4973211;28;98433;-74
2021/03/19 00:28:00;;;;;;;22.90;14.30;;;;;;;2.25;40.16;101427.94;4972852;28;96904;-73
2021/03/19 00:30:27;;;;;;;23.95;13.38;;;;;;;2.17;40.75;101430.97;4986318;28;96952;-74
2021/03/19 00:33:00;;;;;;;19.80;12.38;;;;;;;2.11;40.57;101433.19;4975481;28;96803;-75
2021/03/19 00:35:28;;;;;;;20.80;12.63;;;;;;;2.07;40.68;101440.75;4972864;28;98762;-74
2021/03/19 00:37:55;;;;;;;24.92;13.95;;;;;;;2.02;39.95;101443.06;4977035;28;97202;-74
2021/03/19 00:40:23;;;;;;;20.88;13.50;;;;;;;1.93;40.13;101442.44;5008804;28;96889;-74
2021/03/19 00:42:50;;;;;;;23.77;13.82;;;;;;;1.92;40.21;101438.03;4970451;28;96774;-74
2021/03/19 00:45:18;;;;;;;21.10;12.50;;;;;;;1.92;40.52;101443.28;4971193;28;98578;-75
2021/03/19 00:47:48;;;;;;;22.60;13.65;;;;;;;1.91;40.57;101449.31;4975547;28;96855;-74
2021/03/19 00:50:35;;;;;;;21.50;12.48;;;;;;;1.91;40.28;101451.03;4972136;28;97118;-74
2021/03/19 00:53:04;;;;;;;20.60;12.02;;;;;;;1.88;40.99;101443.88;4971454;28;100325;-74
2021/03/19 00:55:31;;;;;;;19.95;11.88;;;;;;;1.80;40.28;101439.81;5006786;27;96956;-74
2021/03/19 00:57:59;;;;;;;19.63;12.75;;;;;;;1.77;40.61;101429.13;4990049;28;96943;-75
2021/03/19 01:00:29;;;;;;;21.05;13.95;;;;;;;1.84;40.23;101446.19;4990650;28;96884;-73
2021/03/19 01:02:57;;;;;;;17.38;11.55;;;;;;;1.81;40.80;101449.53;4971457;28;99045;-73
2021/03/19 01:05:26;;;;;;;20.05;12.70;;;;;;;1.79;40.45;101451.13;4972783;28;98461;-73
2021/03/19 01:07:54;;;;;;;18.73;12.82;;;;;;;1.77;40.62;101443.97;4954417;28;97747;-73
2021/03/19 01:10:26;;;;;;;18.60;13.15;;;;;;;1.75;40.48;101449.09;4972090;28;97314;-73
2021/03/19 01:12:54;;;;;;;18.08;11.60;;;;;;;1.78;40.13;101451.91;4969226;28;98495;-75
2021/03/19 01:15:22;;;;;;;19.30;12.48;;;;;;;1.77;40.09;101455.38;4955304;28;99052;-74
2021/03/19 01:17:49;;;;;;;21.88;12.48;;;;;;;1.72;40.47;101450.63;4971374;28;96804;-73
2021/03/19 01:20:21;;;;;;;17.90;12.00;;;;;;;1.64;40.29;101444.84;4956173;28;96718;-74
2021/03/19 01:22:48;;;;;;;17.45;11.60;;;;;;;1.64;40.85;101447.47;4972008;28;96982;-74
2021/03/19 01:25:18;;;;;;;16.75;11.35;;;;;;;1.66;40.58;101456.38;4973225;28;99647;-73
2021/03/19 01:27:48;;;;;;;21.23;13.00;;;;;;;1.68;40.68;101462.63;4976558;28;96748;-74
2021/03/19 01:30:17;;;;;;;19.67;12.13;;;;;;;1.71;40.60;101448.78;4958781;28;96875;-74
2021/03/19 01:32:45;;;;;;;17.38;11.05;;;;;;;1.79;40.41;101459.00;5006081;28;99544;-74
2021/03/19 01:35:14;;;;;;;15.88;11.80;;;;;;;1.85;40.45;101450.63;4972391;28;96841;-74
2021/03/19 01:38:00;;;;;;;20.15;11.93;;;;;;;1.92;39.97;101459.03;4970760;28;96834;-74
2021/03/19 01:40:34;;;;;;;16.27;10.88;;;;;;;1.92;40.77;101453.78;4973173;28;96814;-73
2021/03/19 01:43:03;;;;;;;18.20;11.32;;;;;;;1.88;40.68;101454.38;4954952;28;98920;-73
2021/03/19 01:46:07;;;;;;;15.38;11.70;;;;;;;1.88;40.48;101449.13;4972358;28;97046;-73
2021/03/19 01:49:11;;;;;;;16.20;11.02;;;;;;;1.93;40.52;101444.16;4970078;28;96940;-73
2021/03/19 01:52:16;;;;;;;17.95;11.98;;;;;;;1.87;40.78;101444.66;4955737;28;96705;-75
2021/03/19 01:55:20;;;;;;;15.85;11.13;;;;;;;1.89;40.69;101445.69;4972058;28;97474;-73
2021/03/19 01:58:25;;;;;;;18.55;11.25;;;;;;;1.91;40.54;101451.94;4972991;28;100196;-75
2021/03/19 02:01:30;;;;;;;18.23;11.73;;;;;;;1.94;40.75;101446.91;4973158;28;96817;-74
2021/03/19 02:04:49;;;;;;;13.05;10.43;;;;;;;1.87;40.71;101449.91;4970189;28;96938;-75
2021/03/19 02:08:02;;;;;;;17.63;10.75;;;;;;;1.87;40.27;101452.53;4877391;28;98905;-75
2021/03/19 02:11:06;;;;;;;14.32;10.88;;;;;;;1.92;40.03;101456.41;4870865;28;98124;-74
2021/03/19 02:14:11;;;;;;;15.27;10.85;;;;;;;1.89;40.21;101464.03;4985411;28;97318;-74
2021/03/19 02:17:15;;;;;;;17.63;10.35;;;;;;;1.88;40.83;101459.63;4987040;28;97010;-74
2021/03/19 02:20:20;;;;;;;15.68;11.18;;;;;;;1.85;40.67;101464.63;4972813;28;96872;-75
2021/03/19 02:23:25;;;;;;;13.43;10.65;;;;;;;1.84;40.43;101457.59;4970554;28;99682;-74
2021/03/19 02:26:29;;;;;;;15.13;10.98;;;;;;;1.85;40.47;101461.13;4956232;28;97277;-74
2021/03/19 02:29:34;;;;;;;16.35;10.45;;;;;;;1.85;40.32;101461.13;4987492;28;96912;-74
2021/03/19 02:32:06;;;;;;;16.45;10.90;;;;;;;1.89;40.86;101463.16;4973120;28;96911;-73
2021/03/19 02:34:47;;;;;;;17.05;11.13;;;;;;;1.92;40.64;101472.16;4950431;28;100016;-75
2021/03/19 02:37:17;;;;;;;13.90;10.63;;;;;;;1.94;40.55;101461.75;4986235;28;96844;-74
2021/03/19 02:39:44;;;;;;;17.63;12.05;;;;;;;1.95;39.97;101467.09;4971311;28;97482;-74
2021/03/19 02:42:12;;;;;;;15.35;11.05;;;;;;;1.95;40.09;101464.47;4968272;28;99995;-73
2021/03/19 02:44:41;;;;;;;14.48;10.70;;;;;;;2.01;40.00;101472.75;4972163;28;98547;-73
2021/03/19 02:47:10;;;;;;;14.50;10.85;;;;;;;2.03;40.13;101473.75;4969895;28;96643;-75
2021/03/19 02:49:37;;;;;;;14.45;10.70;;;;;;;2.05;40.63;101472.13;4969377;28;97044;-73
2021/03/19 02:52:24;;;;;;;15.55;10.45;;;;;;;2.08;40.05;101485.47;4954963;28;98553;-75
2021/03/19 02:55:12;;;;;;;11.70;9.75;;;;;;;2.14;40.36;101482.38;4970036;28;98676;-73
2021/03/19 02:57:40;;;;;;;16.15;9.93;;;;;;;2.15;39.96;101477.22;4990455;28;96929;-74
2021/03/19 03:00:08;;;;;;;18.27;10.10;;;;;;;2.18;39.69;101473.91;4952258;28;97135;-75
2021/03/19 03:02:36;;;;;;;14.00;10.57;;;;;;;2.23;39.35;101479.44;4965249;28;97151;-74
2021/03/19 03:05:05;;;;;;;12.43;10.32;;;;;;;2.26;40.10;101483.16;4969004;28;97827;-75
2021/03/19 03:07:32;;;;;;;14.95;10.48;;;;;;;2.25;39.68;101485.69;4999770;28;96852;-74
2021/03/19 03:10:00;;;;;;;16.23;11.23;;;;;;;2.28;39.39;101483.25;4968058;28;98155;-75
2021/03/19 03:12:28;;;;;;;11.75;9.82;;;;;;;2.29;40.05;101490.34;4987255;28;99711;-75
2021/03/19 03:14:56;;;;;;;16.67;10.95;;;;;;;2.28;39.58;101491.13;5002648;28;97738;-75
2021/03/19 03:17:23;;;;;;;16.55;11.00;;;;;;;2.23;39.60;101497.81;4973212;28;96754;-74
2021/03/19 03:19:52;;;;;;;14.52;9.75;;;;;;;2.20;39.58;101501.13;4955265;28;97253;-76
2021/03/19 03:22:38;;;;;;;13.27;9.48;;;;;;;2.18;40.08;101501.03;4972058;28;98576;-76
2021/03/19 03:25:07;;;;;;;15.55;10.20;;;;;;;2.17;40.01;101498.31;4974580;28;99765;-74
2021/03/19 03:27:34;;;;;;;16.13;10.70;;;;;;;2.16;40.30;101502.66;4971755;28;97386;-74
2021/03/19 03:30:04;;;;;;;13.15;10.02;;;;;;;2.13;40.15;101510.34;5002875;28;96943;-74
2021/03/19 03:32:30;;;;;;;12.32;9.65;;;;;;;2.10;40.19;101507.53;4968322;28;96961;-75
2021/03/19 03:34:58;;;;;;;12.07;10.75;;;;;;;2.16;39.96;101505.28;4969455;28;96922;-75
2021/03/19 03:37:25;;;;;;;13.52;10.60;;;;;;;2.11;40.27;101511.94;4970865;28;97144;-74
2021/03/19 03:39:53;;;;;;;14.50;9.60;;;;;;;2.09;39.33;101512.66;4952160;28;96812;-74
2021/03/19 03:42:20;;;;;;;14.77;9.52;;;;;;;2.11;39.89;101517.19;5003984;28;98646;-75
2021/03/19 03:45:08;;;;;;;11.35;9.85;;;;;;;2.13;40.18;101515.59;5002012;28;98854;-73
2021/03/19 03:47:35;;;;;;;11.55;9.23;;;;;;;2.13;39.47;101517.28;5006024;27;96797;-74
2021/03/19 03:50:06;;;;;;;15.45;9.57;;;;;;;2.05;39.86;101518.47;5005195;27;97254;-74
2021/03/19 03:52:52;;;;;;;11.88;10.02;;;;;;;2.00;39.66;101523.41;4973942;28;97856;-73
2021/03/19 03:55:19;;;;;;;15.20;9.45;;;;;;;1.99;40.30;101525.94;5005747;28;97246;-74
2021/03/19 03:57:46;;;;;;;9.93;8.98;;;;;;;1.96;40.45;101531.88;4971254;28;96850;-74
2021/03/19 04:00:16;;;;;;;14.57;10.65;;;;;;;1.99;40.20;101542.59;5000846;27;97186;-74
2021/03/19 04:02:43;;;;;;;25.83;16.05;;;;;;;2.04;40.29;101545.53;4971339;28;99414;-74
2021/03/19 04:05:19;;;;;;;15.70;10.23;;;;;;;2.09;40.09;101547.69;4987833;28;98421;-75
2021/03/19 04:07:46;;;;;;;13.63;10.60;;;;;;;2.13;40.16;101547.09;4975706;28;96826;-74
2021/03/19 04:10:13;;;;;;;10.88;9.80;;;;;;;2.17;39.88;101554.38;4959816;28;96957;-75
2021/03/19 04:12:40;;;;;;;15.23;9.85;;;;;;;2.19;39.33;101558.00;5007688;28;98755;-74
2021/03/19 04:15:08;;;;;;;15.23;9.80;;;;;;;2.24;39.62;101562.66;4972509;28;98420;-74
2021/03/19 04:17:35;;;;;;;12.20;9.70;;;;;;;2.28;39.80;101564.66;4972890;28;97144;-74
2021/03/19 04:20:06;;;;;;;13.55;10.82;;;;;;;2.29;39.76;101561.25;4973030;28;96933;-74
2021/03/19 04:22:34;;;;;;;14.15;10.68;;;;;;;2.29;40.05;101561.25;4975568;28;97063;-74
2021/03/19 04:25:03;;;;;;;12.45;9.30;;;;;;;2.30;39.48;101560.44;4973184;28;100394;-74
2021/03/19 04:27:31;;;;;;;11.23;10.05;;;;;;;2.35;39.74;101577.38;4977525;28;96845;-76
2021/03/19 04:29:58;;;;;;;15.65;10.77;;;;;;;2.34;39.51;101576.50;4955913;28;97103;-74
2021/03/19 04:32:25;;;;;;;12.85;9.88;;;;;;;2.33;39.35;101574.66;4973487;28;99019;-75
2021/03/19 04:34:53;;;;;;;11.77;8.98;;;;;;;2.33;40.06;101579.03;5005959;28;97343;-74
2021/03/19 04:37:21;;;;;;;10.88;8.77;;;;;;;2.36;39.37;101581.84;4992810;28;97111;-74
2021/03/19 04:39:49;;;;;;;12.15;9.75;;;;;;;2.34;39.39;101579.13;4987021;28;96829;-73
2021/03/19 04:42:17;;;;;;;14.55;10.50;;;;;;;2.40;39.17;101579.50;4971996;28;98512;-74
2021/03/19 04:44:46;;;;;;;12.32;10.43;;;;;;;2.44;39.51;101585.91;4987185;28;98598;-74
2021/03/19 04:47:14;;;;;;;12.38;9.98;;;;;;;2.45;39.17;101590.34;4974463;28;96872;-73
2021/03/19 04:49:42;;;;;;;16.80;10.80;;;;;;;2.45;39.25;101579.84;4989133;28;96801;-76
2021/03/19 04:52:09;;;;;;;13.35;10.15;;;;;;;2.47;39.19;101586.09;4973950;28;97294;-76
2021/03/19 04:54:36;;;;;;;11.15;9.15;;;;;;;2.48;39.07;101587.91;4954809;28;97516;-73
2021/03/19 04:57:04;;;;;;;14.20;10.38;;;;;;;2.46;39.25;101590.44;4976267;28;97107;-73
2021/03/19 04:59:33;;;;;;;11.07;8.93;;;;;;;2.49;39.27;101597.63;4977659;28;96855;-74
2021/03/19 05:02:01;;;;;;;44.13;20.55;;;;;;;2.49;39.16;101592.38;4970194;28;96942;-73
2021/03/19 05:04:29;;;;;;;22.45;13.05;;;;;;;2.46;39.03;101592.16;4973317;28;98380;-74
2021/03/19 05:07:01;;;;;;;11.55;10.05;;;;;;;2.48;39.69;101607.22;4955198;28;98311;-73
2021/03/19 05:09:28;;;;;;;13.90;9.73;;;;;;;2.47;39.76;101601.88;4987062;28;96754;-75
2021/03/19 05:11:56;;;;;;;20.85;14.77;;;;;;;2.49;39.68;101595.88;5017340;27;96973;-73
2021/03/19 05:14:24;;;;;;;21.30;13.15;;;;;;;2.51;38.79;101603.88;5003044;28;97321;-73
2021/03/19 05:16:51;;;;;;;14.45;10.15;;;;;;;2.61;39.48;101614.19;4972535;28;97095;-73
2021/03/19 05:19:19;;;;;;;14.88;11.18;;;;;;;2.52;39.57;101613.56;4987195;28;97045;-74
2021/03/19 05:21:46;;;;;;;47.47;23.98;;;;;;;2.52;39.89;101610.94;4956037;28;98841;-73
2021/03/19 05:24:14;;;;;;;16.83;12.88;;;;;;;2.48;39.62;101614.16;5000366;28;100101;-74
2021/03/19 05:26:41;;;;;;;15.20;11.75;;;;;;;2.48;39.47;101619.44;4973045;28;97679;-73
2021/03/19 05:29:09;;;;;;;15.07;11.07;;;;;;;2.48;39.55;101616.81;4970245;28;96892;-74
2021/03/19 05:31:37;;;;;;;13.95;10.73;;;;;;;2.49;39.27;101626.53;4969244;28;97296;-74
2021/03/19 05:34:04;;;;;;;14.90;10.85;;;;;;;2.49;39.63;101630.03;4971724;28;98304;-74
2021/03/19 05:36:33;;;;;;;36.97;25.13;;;;;;;2.51;39.45;101635.41;4949422;28;97717;-74
2021/03/19 05:39:00;;;;;;;14.45;12.38;;;;;;;2.50;39.71;101624.00;4963047;28;97063;-72
2021/03/19 05:41:31;;;;;;;13.65;10.68;;;;;;;2.50;39.39;101631.88;4968065;28;96854;-73
2021/03/19 05:44:02;;;;;;;113.70;45.38;;;;;;;2.50;39.25;101630.94;4969020;28;96899;-72
2021/03/19 05:46:31;;;;;;;26.75;17.20;;;;;;;2.48;39.93;101637.81;4943488;28;97226;-73
2021/03/19 05:49:01;;;;;;;19.40;12.35;;;;;;;2.46;39.81;101632.47;4966493;28;96898;-74
2021/03/19 05:51:35;;;;;;;14.73;11.20;;;;;;;2.48;39.88;101645.69;4985389;28;98765;-72
2021/03/19 05:54:11;;;;;;;16.13;11.95;;;;;;;2.51;39.48;101632.78;4969826;28;97318;-74
2021/03/19 05:56:38;;;;;;;63.92;29.45;;;;;;;2.50;39.17;101646.72;4980371;28;97736;-73
2021/03/19 05:59:05;;;;;;;22.92;16.10;;;;;;;2.51;39.46;101649.44;4964526;28;97610;-73
2021/03/19 06:01:33;;;;;;;16.00;12.48;;;;;;;2.58;39.38;101658.66;4998097;28;97552;-73
2021/03/19 06:04:01;;;;;;;14.45;11.30;;;;;;;2.59;39.01;101665.72;4972867;28;96773;-73
2021/03/19 06:06:45;;;;;;;14.95;10.73;;;;;;;2.59;39.29;101668.34;4965507;28;97854;-73
2021/03/19 06:09:33;;;;;;;12.93;9.93;;;;;;;2.62;39.00;101668.56;5003567;27;97965;-74
2021/03/19 06:12:04;;;;;;;12.30;10.10;;;;;;;2.58;39.11;101667.47;4968861;28;98451;-73
2021/03/19 06:14:40;;;;;;;11.77;10.07;;;;;;;2.59;39.25;101671.88;4975808;28;98476;-73
2021/03/19 06:17:16;;;;;;;11.48;10.15;;;;;;;2.56;39.07;101670.78;4959797;28;97199;-73
2021/03/19 06:19:49;;;;;;;11.32;9.88;;;;;;;2.58;39.79;101671.78;4966699;28;96764;-73
2021/03/19 06:22:21;;;;;;;11.48;9.43;;;;;;;2.60;38.95;101672.81;4963349;28;97731;-73
2021/03/19 06:25:17;;;;;;;10.25;9.13;;;;;;;2.56;39.57;101676.03;4998317;28;97342;-73
2021/03/19 06:27:50;;;;;;;10.27;9.25;;;;;;;2.60;39.32;101678.94;4970199;28;97001;-72
2021/03/19 06:30:26;;;;;;;10.82;8.93;;;;;;;2.63;39.30;101688.78;4977436;28;96959;-72
2021/03/19 06:33:05;;;;;;;12.13;9.98;;;;;;;2.66;38.96;101689.88;4999679;27;99769;-73
2021/03/19 06:35:36;;;;;;;12.50;9.70;;;;;;;2.67;38.82;101682.91;4952793;28;96773;-73
2021/03/19 06:38:28;;;;;;;13.40;10.02;;;;;;;2.68;38.79;101682.09;4967877;28;96828;-72
2021/03/19 06:40:56;;;;;;;12.63;9.88;;;;;;;2.72;39.16;101685.03;4967701;28;96866;-72
2021/03/19 06:43:25;;;;;;;13.98;10.70;;;;;;;2.73;39.21;101691.22;4966920;28;97671;-72
2021/03/19 06:46:08;;;;;;;12.70;10.40;;;;;;;2.75;39.40;101687.88;4966795;28;98118;-72
2021/03/19 06:48:38;;;;;;;13.48;10.98;;;;;;;2.79;38.34;101687.28;4955573;28;97157;-72
2021/03/19 06:51:11;;;;;;;11.95;9.48;;;;;;;2.79;38.65;101686.34;4959653;28;97225;-72
2021/03/19 06:53:39;;;;;;;10.20;8.60;;;;;;;2.79;38.72;101688.97;4973443;28;98269;-72
2021/03/19 06:56:15;;;;;;;11.82;10.27;;;;;;;2.77;38.82;101687.97;4971340;28;97353;-73
2021/03/19 06:58:46;;;;;;;14.43;10.90;;;;;;;2.79;38.76;101682.00;4954460;28;96929;-72
2021/03/19 07:01:29;;;;;;;13.27;10.55;;;;;;;2.75;38.67;101684.31;4946994;28;97632;-72
2021/03/19 07:04:14;;;;;;;12.82;10.27;;;;;;;2.75;38.86;101700.09;4971392;28;100267;-71
2021/03/19 07:06:53;;;;;;;13.52;10.60;;;;;;;2.79;39.23;101689.91;4940052;28;99876;-71
2021/03/19 07:09:28;;;;;;;14.73;10.18;;;;;;;2.77;39.35;101698.47;4954930;28;97144;-72
2021/03/19 07:12:06;;;;;;;12.25;9.57;;;;;;;2.79;39.29;101696.88;4955798;28;97024;-71
2021/03/19 07:15:03;;;;;;;16.13;11.52;;;;;;;2.85;39.05;101702.53;4952269;28;102765;-72
2021/03/19 07:17:49;;;;;;;14.75;10.95;;;;;;;2.91;39.36;101709.09;4973731;28;99623;-72
2021/03/19 07:20:24;;;;;;;12.60;11.30;;;;;;;2.94;38.47;101713.66;4990708;28;97299;-72
2021/03/19 07:23:07;;;;;;;14.27;11.57;;;;;;;2.94;38.82;101719.84;4957030;28;97633;-71
2021/03/19 07:25:53;;;;;;;13.57;11.13;;;;;;;2.97;38.75;101729.63;4959381;28;98606;-73
2021/03/19 07:28:32;;;;;;;12.75;9.93;;;;;;;2.87;38.92;101728.13;4947602;28;99053;-73
2021/03/19 07:31:19;;;;;;;14.23;11.60;;;;;;;2.82;38.83;101724.25;4971611;28;97159;-72
2021/03/19 07:33:58;;;;;;;11.10;9.98;;;;;;;2.79;38.87;101729.31;4976995;28;96982;-72
2021/03/19 07:36:46;;;;;;;12.00;10.10;;;;;;;2.74;39.02;101735.06;4991728;28;100844;-73
2021/03/19 07:39:32;;;;;;;11.75;10.02;;;;;;;2.77;39.00;101740.53;4974101;28;97482;-73
2021/03/19 07:42:12;;;;;;;16.15;11.20;;;;;;;2.72;38.56;101742.84;4956110;28;97459;-72
2021/03/19 07:44:48;;;;;;;15.02;12.15;;;;;;;2.74;39.32;101742.97;4971339;28;97005;-72
2021/03/19 07:47:34;;;;;;;18.30;13.40;;;;;;;2.75;39.06;101750.00;4972692;28;99742;-73
2021/03/19 07:50:26;;;;;;;19.55;12.85;;;;;;;2.82;38.76;101757.53;4960159;28;100397;-72
2021/03/19 07:53:27;;;;;;;20.52;13.73;;;;;;;2.88;38.91;101761.47;4954167;28;97017;-72
2021/03/19 07:56:13;;;;;;;17.83;12.20;;;;;;;2.93;38.82;101767.06;4948930;28;97946;-72
2021/03/19 07:58:50;;;;;;;13.95;11.27;;;;;;;3.00;38.84;101771.91;4987777;28;98949;-72
2021/03/19 08:01:23;;;;;;;16.70;12.73;;;;;;;3.04;38.61;101772.22;4960169;28;98870;-72
2021/03/19 08:03:59;;;;;;;20.20;14.05;;;;;;;3.09;38.34;101783.06;4958533;28;96909;-72
2021/03/19 08:06:32;;;;;;;18.88;13.77;;;;;;;3.17;38.80;101781.81;4944029;28;96851;-72
2021/03/19 08:09:02;;;;;;;16.50;12.63;;;;;;;3.19;38.83;101790.72;4957003;28;97824;-72
2021/03/19 08:11:37;;;;;;;20.33;12.25;;;;;;;3.17;38.52;101782.75;4957751;28;100120;-72
2021/03/19 08:14:26;;;;;;;18.85;13.52;;;;;;;3.21;38.64;101774.25;4962576;28;96781;-73
2021/03/19 08:16:59;;;;;;;18.02;12.93;;;;;;;3.29;38.25;101774.75;4958851;28;96885;-72
2021/03/19 08:19:29;;;;;;;13.27;11.60;;;;;;;3.32;38.76;101780.22;4974155;28;98599;-72
2021/03/19 08:22:03;;;;;;;17.67;12.05;;;;;;;3.43;38.17;101780.91;4934877;28;97639;-72
2021/03/19 08:24:41;;;;;;;17.27;12.55;;;;;;;3.49;38.36;101787.50;4964251;28;97003;-73
2021/03/19 08:27:14;;;;;;;17.35;12.45;;;;;;;3.57;38.11;101791.53;4950416;28;96942;-72
2021/03/19 08:29:53;;;;;;;18.70;13.77;;;;;;;3.68;37.97;101803.69;4996270;28;98543;-73
2021/03/19 08:32:30;;;;;;;16.63;13.00;;;;;;;3.74;38.28;101809.38;4966480;28;98866;-73
2021/03/19 08:35:24;;;;;;;16.33;11.85;;;;;;;3.81;38.36;101813.28;4970638;28;97232;-73
2021/03/19 08:38:01;;;;;;;21.00;15.05;;;;;;;3.85;37.92;101810.97;4970136;28;97373;-72
2021/03/19 08:40:35;;;;;;;21.42;16.30;;;;;;;3.92;37.91;101812.25;4967001;28;97183;-71
2021/03/19 08:43:06;;;;;;;24.02;18.38;;;;;;;3.96;37.60;101820.47;4965028;28;99666;-71
2021/03/19 08:45:34;;;;;;;24.05;16.77;;;;;;;3.96;37.74;101815.22;4964552;28;97311;-71
2021/03/19 08:48:04;;;;;;;18.15;13.32;;;;;;;4.02;37.79;101812.94;4955452;28;96860;-71
2021/03/19 08:50:36;;;;;;;13.90;12.35;;;;;;;4.12;37.69;101817.06;4994069;28;99399;-71
2021/03/19 08:53:13;;;;;;;17.30;12.75;;;;;;;4.15;37.86;101818.19;4949088;28;99755;-71
2021/03/19 08:55:42;;;;;;;17.00;13.32;;;;;;;4.21;37.80;101813.31;4968464;28;98035;-71
2021/03/19 08:58:47;;;;;;;14.73;11.93;;;;;;;4.29;37.68;101811.16;4969982;28;96913;-71
2021/03/19 09:01:49;;;;;;;15.68;12.00;;;;;;;4.36;37.60;101818.63;4952807;28;98488;-71
2021/03/19 09:05:03;;;;;;;12.38;10.50;;;;;;;4.33;37.77;101828.06;4937566;28;98915;-71
2021/03/19 09:07:33;;;;;;;13.27;11.43;;;;;;;4.31;37.60;101821.78;4964768;28;97135;-71
2021/03/19 09:10:01;;;;;;;13.55;10.80;;;;;;;4.34;37.58;101808.78;4964456;28;97288;-71
2021/03/19 09:12:29;;;;;;;12.15;10.82;;;;;;;4.45;37.45;101813.00;4964013;28;96956;-71
2021/03/19 09:15:28;;;;;;;14.13;10.82;;;;;;;4.53;37.58;101810.06;4953871;28;100927;-71
2021/03/19 09:18:08;;;;;;;13.07;10.63;;;;;;;4.61;37.33;101814.06;4957862;28;97138;-71
2021/03/19 09:21:02;;;;;;;12.75;10.57;;;;;;;4.74;37.38;101814.00;4963476;28;96465;-71
2021/03/19 09:23:32;;;;;;;12.40;10.07;;;;;;;4.75;37.24;101814.91;4971017;28;98843;-72
2021/03/19 09:26:22;;;;;;;10.85;9.57;;;;;;;4.85;36.98;101807.63;4967025;28;97262;-72
2021/03/19 09:28:59;;;;;;;10.13;8.95;;;;;;;4.88;37.03;101801.66;5000072;27;97633;-71
2021/03/19 09:31:43;;;;;;;11.23;9.90;;;;;;;4.92;36.90;101806.25;5000524;28;97086;-71
2021/03/19 09:34:18;;;;;;;9.73;8.65;;;;;;;4.98;36.78;101806.63;4969626;28;98717;-72
2021/03/19 09:37:04;;;;;;;10.38;9.32;;;;;;;5.03;36.80;101807.84;4975908;28;96837;-71
2021/03/19 09:39:49;;;;;;;10.75;9.65;;;;;;;5.01;36.14;101809.50;4973128;28;96819;-71
2021/03/19 09:42:42;;;;;;;13.27;10.07;;;;;;;5.07;36.14;101816.06;4958419;28;96799;-71
2021/03/19 09:45:22;;;;;;;13.05;10.13;;;;;;;5.17;36.67;101828.97;4985163;28;98427;-71
2021/03/19 09:48:02;;;;;;;10.68;9.60;;;;;;;5.18;36.62;101821.97;4963248;28;99994;-71
2021/03/19 09:50:33;;;;;;;11.55;9.23;;;;;;;5.13;36.70;101827.00;4984164;28;96828;-71
2021/03/19 09:53:05;;;;;;;12.82;8.95;;;;;;;5.21;36.50;101835.31;5006152;28;96921;-72
2021/03/19 09:55:36;;;;;;;9.52;8.52;;;;;;;5.24;35.95;101835.53;4976773;28;97042;-72
2021/03/19 09:58:08;;;;;;;10.55;9.60;;;;;;;5.25;36.16;101836.44;4990735;28;99622;-71
2021/03/19 10:00:35;;;;;;;10.15;8.23;;;;;;;5.29;36.46;101836.69;4976901;28;96873;-72
2021/03/19 10:03:10;;;;;;;8.98;8.07;;;;;;;5.38;36.44;101839.88;4971259;28;96932;-72
2021/03/19 10:05:40;;;;;;;11.80;9.00;;;;;;;5.45;36.15;101842.06;4974266;28;97816;-71
2021/03/19 10:08:07;;;;;;;13.07;8.02;;;;;;;5.51;36.03;101842.44;4969926;28;97059;-71
2021/03/19 10:10:36;;;;;;;9.50;8.48;;;;;;;5.64;35.81;101844.03;4969199;28;97383;-72
2021/03/19 10:13:05;;;;;;;9.60;8.13;;;;;;;5.68;35.83;101841.69;5006122;28;97270;-72
2021/03/19 10:15:32;;;;;;;10.10;7.50;;;;;;;5.73;35.36;101844.56;4974364;28;99584;-72
2021/03/19 10:18:02;;;;;;;9.18;7.15;;;;;;;5.76;35.32;101848.28;4974279;28;96861;-71
2021/03/19 10:20:35;;;;;;;8.63;7.72;;;;;;;5.78;35.49;101849.28;4973895;28;96828;-72
2021/03/19 10:23:14;;;;;;;8.45;7.57;;;;;;;5.83;35.58;101854.84;4989208;28;97006;-72
2021/03/19 10:25:43;;;;;;;8.40;7.60;;;;;;;5.92;35.36;101853.63;4968109;28;99134;-72
2021/03/19 10:28:22;;;;;;;8.05;7.32;;;;;;;5.97;35.00;101856.53;4968304;28;98865;-72
2021/03/19 10:30:53;;;;;;;9.63;7.18;;;;;;;5.97;35.07;101848.63;5002091;28;96826;-72
2021/03/19 10:33:24;;;;;;;10.27;8.63;;;;;;;6.04;35.26;101848.13;4974016;28;96894;-72
2021/03/19 10:35:58;;;;;;;8.68;7.78;;;;;;;6.06;35.24;101847.41;5000721;27;99170;-71
2021/03/19 10:38:41;;;;;;;9.55;8.65;;;;;;;6.17;34.93;101848.00;5002087;28;96927;-72
2021/03/19 10:41:22;;;;;;;9.27;8.38;;;;;;;6.28;34.57;101848.63;4966341;28;96809;-72
2021/03/19 10:43:53;;;;;;;9.43;8.50;;;;;;;6.33;34.96;101849.78;4963106;28;97808;-72
2021/03/19 10:46:26;;;;;;;8.52;7.70;;;;;;;6.39;34.81;101851.03;4950950;28;98766;-72
2021/03/19 10:48:57;;;;;;;8.35;7.63;;;;;;;6.41;34.77;101859.97;4972809;28;96849;-72
2021/03/19 10:51:34;;;;;;;9.85;8.23;;;;;;;6.44;34.31;101849.56;4992669;28;98889;-71
2021/03/19 10:54:09;;;;;;;9.02;8.13;;;;;;;6.47;33.99;101846.19;4966189;28;98249;-72
2021/03/19 10:56:45;;;;;;;7.85;7.05;;;;;;;6.60;34.64;101856.56;4999478;28;100610;-72
2021/03/19 10:59:14;;;;;;;6.10;5.60;;;;;;;6.68;34.64;101855.25;4945836;28;100091;-72
2021/03/19 11:01:46;;;;;;;6.50;6.00;;;;;;;6.83;34.30;101861.38;4965794;28;96932;-72
2021/03/19 11:04:33;;;;;;;6.57;5.97;;;;;;;6.89;33.82;101862.59;4948226;28;96910;-72
2021/03/19 11:07:18;;;;;;;7.35;6.50;;;;;;;6.86;33.96;101861.53;4970710;28;98380;-72
2021/03/19 11:10:06;;;;;;;7.97;7.18;;;;;;;6.74;33.00;101859.16;4948758;28;99901;-72
2021/03/19 11:12:35;;;;;;;8.35;7.07;;;;;;;6.70;34.25;101854.53;4968032;28;96741;-72
2021/03/19 11:15:06;;;;;;;7.68;7.03;;;;;;;6.76;34.44;101856.59;4967733;28;97163;-72
2021/03/19 11:17:36;;;;;;;7.55;6.80;;;;;;;6.84;34.15;101860.53;4968135;28;97889;-72
2021/03/19 11:20:10;;;;;;;5.78;5.38;;;;;;;6.94;33.94;101852.28;4967506;28;96947;-72
2021/03/19 11:22:39;;;;;;;5.82;5.38;;;;;;;7.01;33.78;101859.69;4967861;28;96861;-72
2021/03/19 11:25:41;;;;;;;6.47;5.78;;;;;;;7.09;33.57;101859.25;4999286;27;97012;-73
2021/03/19 11:28:42;;;;;;;5.78;5.22;;;;;;;7.12;33.67;101848.84;4982915;28;97327;-73
2021/03/19 11:31:15;;;;;;;7.93;7.07;;;;;;;7.19;33.36;101856.28;4933437;28;98523;-72
2021/03/19 11:34:02;;;;;;;8.77;7.57;;;;;;;7.24;33.62;101860.06;4968562;28;97556;-73
2021/03/19 11:36:49;;;;;;;9.30;8.05;;;;;;;7.25;33.34;101860.97;4989219;27;97696;-72
2021/03/19 11:39:25;;;;;;;8.65;7.75;;;;;;;7.22;33.28;101868.75;4981068;28;97560;-73
2021/03/19 11:41:52;;;;;;;7.90;7.20;;;;;;;7.24;33.40;101868.00;4967651;28;96781;-73
2021/03/19 11:44:23;;;;;;;10.77;7.35;;;;;;;7.27;33.57;101867.28;4972810;28;97026;-72
2021/03/19 11:46:49;;;;;;;9.23;8.32;;;;;;;7.34;33.45;101879.06;4970112;28;96912;-73
2021/03/19 11:49:17;;;;;;;7.32;6.63;;;;;;;7.38;33.42;101879.31;4996225;28;97663;-72
2021/03/19 11:51:45;;;;;;;7.15;6.55;;;;;;;7.44;33.28;101884.94;4998778;28;98414;-72
2021/03/19 11:54:12;;;;;;;8.68;6.78;;;;;;;7.45;33.23;101891.16;4968617;28;97122;-71
2021/03/19 11:56:39;;;;;;;7.05;6.35;;;;;;;7.41;33.40;101890.09;4997745;28;96997;-71
2021/03/19 11:59:14;;;;;;;8.07;7.28;;;;;;;7.38;33.46;101889.00;4981015;28;99849;-72